createdAt,value
2018-07-09T00:00:14.541Z,17.10
2018-07-09T00:01:14.566Z,17.00
2018-07-09T00:02:14.588Z,16.95
2018-07-09T00:03:14.614Z,17.03
2018-07-09T00:04:14.641Z,17.14
2018-07-09T00:05:14.664Z,17.20
2018-07-09T00:06:14.729Z,17.22
2018-07-09T00:07:14.714Z,17.20
2018-07-09T00:08:14.737Z,17.21
2018-07-09T00:09:14.761Z,17.18
2018-07-09T00:10:14.787Z,17.28
2018-07-09T00:11:14.813Z,17.17
2018-07-09T00:12:14.838Z,17.15
2018-07-09T00:13:14.862Z,17.17
2018-07-09T00:14:14.898Z,17.06
2018-07-09T00:15:14.912Z,17.10
2018-07-09T00:16:14.938Z,17.10
2018-07-09T00:17:14.965Z,17.15
2018-07-09T00:18:14.995Z,17.20
2018-07-09T00:19:15.015Z,17.10
2018-07-09T00:20:15.035Z,17.18
2018-07-09T00:21:15.065Z,17.12
2018-07-09T00:22:15.087Z,17.15
2018-07-09T00:23:15.111Z,17.03
2018-07-09T00:24:15.138Z,16.99
2018-07-09T00:25:15.157Z,17.06
2018-07-09T00:26:15.188Z,17.18
2018-07-09T00:27:15.213Z,17.14
2018-07-09T00:28:15.236Z,17.18
2018-07-09T00:29:15.264Z,17.14
2018-07-09T00:30:15.292Z,17.12
2018-07-09T00:31:15.313Z,17.18
2018-07-09T00:32:15.340Z,17.06
2018-07-09T00:33:15.364Z,17.05
2018-07-09T00:34:15.386Z,16.98
2018-07-09T00:35:15.411Z,17.05
2018-07-09T00:36:15.437Z,16.98
2018-07-09T00:37:15.471Z,16.95
2018-07-09T00:38:15.491Z,16.95
2018-07-09T00:39:15.516Z,16.90
2018-07-09T00:40:15.537Z,16.99
2018-07-09T00:41:15.564Z,16.95
2018-07-09T00:42:15.592Z,16.87
2018-07-09T00:43:15.617Z,16.91
2018-07-09T00:44:15.640Z,16.81
2018-07-09T00:45:15.662Z,16.77
2018-07-09T00:46:15.687Z,16.82
2018-07-09T00:47:15.712Z,16.91
2018-07-09T00:48:15.744Z,16.81
2018-07-09T00:49:15.759Z,16.90
2018-07-09T00:50:15.790Z,16.88
2018-07-09T00:51:15.813Z,16.78
2018-07-09T00:52:15.838Z,16.67
2018-07-09T00:53:15.864Z,16.65
2018-07-09T00:54:15.887Z,16.67
2018-07-09T00:55:15.914Z,16.60
2018-07-09T00:56:15.940Z,16.63
2018-07-09T00:57:15.961Z,16.69
2018-07-09T00:58:15.986Z,16.60
2018-07-09T00:59:16.010Z,16.65
2018-07-09T01:00:16.038Z,16.66
2018-07-09T01:01:16.061Z,16.66
2018-07-09T01:02:16.090Z,16.72
2018-07-09T01:03:16.111Z,16.63
2018-07-09T01:04:16.133Z,16.62
2018-07-09T01:05:16.162Z,16.51
2018-07-09T01:06:16.188Z,16.47
2018-07-09T01:07:16.211Z,16.65
2018-07-09T01:08:16.235Z,16.65
2018-07-09T01:09:16.257Z,16.72
2018-07-09T01:10:16.284Z,16.77
2018-07-09T01:11:16.310Z,16.72
2018-07-09T01:12:16.331Z,16.70
2018-07-09T01:13:16.361Z,16.65
2018-07-09T01:14:16.379Z,16.67
2018-07-09T01:15:16.407Z,16.62
2018-07-09T01:16:16.429Z,16.66
2018-07-09T01:17:16.461Z,16.67
2018-07-09T01:18:16.483Z,16.55
2018-07-09T01:19:16.506Z,16.55
2018-07-09T01:20:16.577Z,16.63
2018-07-09T01:21:16.549Z,16.48
2018-07-09T01:22:16.583Z,16.57
2018-07-09T01:23:16.603Z,16.54
2018-07-09T01:24:16.631Z,16.50
2018-07-09T01:25:16.658Z,16.50
2018-07-09T01:26:16.672Z,16.54
2018-07-09T01:27:16.701Z,16.48
2018-07-09T01:28:16.725Z,16.48
2018-07-09T01:29:16.749Z,16.48
2018-07-09T01:30:16.775Z,16.55
2018-07-09T01:31:16.805Z,16.42
2018-07-09T01:32:16.833Z,16.40
2018-07-09T01:33:16.859Z,16.45
2018-07-09T01:34:16.877Z,16.50
2018-07-09T01:35:16.901Z,16.50
2018-07-09T01:36:16.929Z,16.37
2018-07-09T01:37:16.946Z,16.48
2018-07-09T01:38:16.975Z,16.33
2018-07-09T01:39:17.004Z,16.30
2018-07-09T01:40:17.027Z,16.41
2018-07-09T01:41:17.046Z,16.33
2018-07-09T01:42:17.075Z,16.37
2018-07-09T01:43:17.107Z,16.34
2018-07-09T01:44:17.121Z,16.36
2018-07-09T01:45:17.151Z,16.36
2018-07-09T01:46:17.169Z,16.33
2018-07-09T01:47:17.204Z,16.29
2018-07-09T01:48:17.219Z,16.33
2018-07-09T01:49:17.244Z,16.32
2018-07-09T01:50:17.269Z,16.33
2018-07-09T01:51:17.295Z,16.44
2018-07-09T01:52:17.323Z,16.45
2018-07-09T01:53:17.343Z,16.52
2018-07-09T01:54:17.360Z,16.52
2018-07-09T01:55:17.398Z,16.52
2018-07-09T01:56:17.418Z,16.42
2018-07-09T01:57:17.440Z,16.55
2018-07-09T01:58:17.465Z,16.50
2018-07-09T01:59:17.491Z,16.52
2018-07-09T02:00:17.515Z,16.51
2018-07-09T02:01:17.539Z,16.52
2018-07-09T02:02:17.565Z,16.48
2018-07-09T02:03:17.589Z,16.44
2018-07-09T02:04:17.619Z,16.54
2018-07-09T02:05:17.637Z,16.41
2018-07-09T02:06:17.661Z,16.36
2018-07-09T02:07:17.681Z,16.44
2018-07-09T02:08:17.709Z,16.44
2018-07-09T02:09:17.731Z,16.41
2018-07-09T02:10:17.757Z,16.45
2018-07-09T02:11:17.784Z,16.33
2018-07-09T02:12:17.811Z,16.32
2018-07-09T02:13:17.829Z,16.37
2018-07-09T02:14:17.863Z,16.30
2018-07-09T02:15:17.881Z,16.13
2018-07-09T02:16:17.908Z,16.14
2018-07-09T02:17:17.930Z,16.10
2018-07-09T02:18:17.952Z,16.18
2018-07-09T02:19:17.986Z,16.23
2018-07-09T02:20:18.006Z,16.27
2018-07-09T02:21:18.029Z,16.29
2018-07-09T02:22:18.057Z,16.33
2018-07-09T02:23:18.073Z,16.34
2018-07-09T02:24:18.101Z,16.33
2018-07-09T02:25:18.127Z,16.29
2018-07-09T02:26:18.148Z,16.29
2018-07-09T02:27:18.178Z,16.32
2018-07-09T02:28:18.196Z,16.26
2018-07-09T02:29:18.228Z,16.22
2018-07-09T02:30:18.247Z,16.22
2018-07-09T02:31:18.275Z,16.26
2018-07-09T02:32:18.303Z,16.11
2018-07-09T02:33:18.323Z,16.11
2018-07-09T02:34:18.344Z,16.14
2018-07-09T02:35:18.371Z,16.14
2018-07-09T02:36:18.395Z,16.10
2018-07-09T02:37:18.419Z,16.13
2018-07-09T02:38:18.442Z,16.11
2018-07-09T02:39:18.466Z,16.11
2018-07-09T02:40:18.493Z,16.10
2018-07-09T02:41:18.519Z,16.10
2018-07-09T02:42:18.545Z,16.26
2018-07-09T02:43:18.573Z,16.17
2018-07-09T02:44:18.589Z,16.30
2018-07-09T02:45:18.611Z,16.26
2018-07-09T02:46:18.643Z,16.25
2018-07-09T02:47:18.670Z,16.32
2018-07-09T02:48:18.690Z,16.23
2018-07-09T02:49:18.808Z,16.23
2018-07-09T02:50:18.740Z,16.10
2018-07-09T02:51:18.758Z,16.16
2018-07-09T02:52:18.791Z,16.26
2018-07-09T02:53:18.809Z,16.23
2018-07-09T02:54:18.833Z,16.18
2018-07-09T02:55:18.863Z,16.11
2018-07-09T02:56:18.885Z,16.17
2018-07-09T02:57:18.918Z,16.14
2018-07-09T02:58:18.933Z,16.22
2018-07-09T02:59:18.955Z,16.18
2018-07-09T03:00:18.982Z,16.14
2018-07-09T03:01:19.055Z,16.16
2018-07-09T03:02:19.031Z,16.14
2018-07-09T03:03:19.055Z,16.13
2018-07-09T03:04:19.091Z,16.14
2018-07-09T03:05:19.101Z,16.11
2018-07-09T03:06:19.122Z,16.14
2018-07-09T03:07:19.147Z,16.14
2018-07-09T03:08:19.170Z,16.17
2018-07-09T03:09:19.201Z,16.23
2018-07-09T03:10:19.218Z,16.22
2018-07-09T03:11:19.246Z,16.18
2018-07-09T03:12:19.265Z,16.25
2018-07-09T03:13:19.295Z,16.17
2018-07-09T03:14:19.319Z,16.27
2018-07-09T03:15:19.344Z,16.13
2018-07-09T03:16:19.369Z,16.30
2018-07-09T03:17:19.396Z,16.13
2018-07-09T03:18:19.419Z,16.10
2018-07-09T03:19:19.464Z,15.99
2018-07-09T03:20:19.470Z,15.99
2018-07-09T03:21:19.489Z,16.01
2018-07-09T03:22:19.512Z,15.99
2018-07-09T03:23:19.542Z,16.14
2018-07-09T03:24:19.566Z,16.10
2018-07-09T03:25:19.584Z,16.08
2018-07-09T03:26:19.613Z,16.11
2018-07-09T03:27:19.638Z,16.17
2018-07-09T03:28:19.660Z,16.32
2018-07-09T03:29:19.694Z,16.16
2018-07-09T03:30:19.709Z,16.14
2018-07-09T03:31:19.729Z,16.13
2018-07-09T03:32:19.753Z,16.10
2018-07-09T03:33:19.778Z,16.03
2018-07-09T03:34:19.804Z,16.07
2018-07-09T03:35:19.825Z,16.07
2018-07-09T03:36:19.849Z,16.08
2018-07-09T03:37:19.875Z,16.10
2018-07-09T03:38:19.897Z,16.08
2018-07-09T03:39:19.925Z,16.11
2018-07-09T03:40:19.949Z,16.11
2018-07-09T03:41:19.968Z,16.11
2018-07-09T03:42:19.997Z,16.17
2018-07-09T03:43:20.015Z,16.17
2018-07-09T03:44:20.045Z,16.26
2018-07-09T03:45:20.065Z,16.17
2018-07-09T03:46:20.093Z,16.13
2018-07-09T03:47:20.121Z,16.08
2018-07-09T03:48:20.139Z,16.17
2018-07-09T03:49:20.171Z,16.17
2018-07-09T03:50:20.185Z,16.29
2018-07-09T03:51:20.217Z,16.36
2018-07-09T03:52:20.238Z,16.30
2018-07-09T03:53:20.265Z,16.30
2018-07-09T03:54:20.288Z,16.27
2018-07-09T03:55:20.313Z,16.37
2018-07-09T03:56:20.333Z,16.41
2018-07-09T03:57:20.359Z,16.41
2018-07-09T03:58:20.383Z,16.45
2018-07-09T03:59:20.407Z,16.41
2018-07-09T04:00:20.425Z,16.40
2018-07-09T04:01:20.455Z,16.44
2018-07-09T04:02:20.541Z,16.44
2018-07-09T04:03:20.503Z,16.45
2018-07-09T04:04:20.523Z,16.51
2018-07-09T04:05:20.554Z,16.44
2018-07-09T04:06:20.577Z,16.51
2018-07-09T04:07:20.601Z,16.55
2018-07-09T04:08:20.621Z,16.51
2018-07-09T04:09:20.651Z,16.52
2018-07-09T04:10:20.673Z,16.65
2018-07-09T04:11:20.695Z,16.67
2018-07-09T04:12:20.721Z,16.66
2018-07-09T04:13:20.738Z,16.62
2018-07-09T04:14:20.769Z,16.65
2018-07-09T04:15:20.795Z,16.51
2018-07-09T04:16:20.813Z,16.54
2018-07-09T04:17:20.841Z,16.65
2018-07-09T04:18:20.869Z,16.80
2018-07-09T04:19:20.897Z,16.87
2018-07-09T04:20:20.914Z,16.91
2018-07-09T04:21:20.940Z,16.88
2018-07-09T04:22:20.963Z,17.02
2018-07-09T04:23:20.986Z,17.03
2018-07-09T04:24:21.010Z,16.99
2018-07-09T04:25:21.036Z,17.05
2018-07-09T04:26:21.090Z,17.05
2018-07-09T04:27:21.082Z,17.20
2018-07-09T04:28:21.112Z,17.18
2018-07-09T04:29:21.137Z,17.17
2018-07-09T04:30:21.157Z,17.24
2018-07-09T04:31:21.191Z,17.20
2018-07-09T04:32:21.203Z,17.22
2018-07-09T04:33:21.233Z,17.20
2018-07-09T04:34:21.254Z,17.17
2018-07-09T04:35:21.280Z,17.20
2018-07-09T04:36:21.309Z,17.18
2018-07-09T04:37:21.331Z,17.20
2018-07-09T04:38:21.358Z,17.20
2018-07-09T04:39:21.380Z,17.22
2018-07-09T04:40:21.405Z,17.27
2018-07-09T04:41:21.431Z,17.20
2018-07-09T04:42:21.449Z,17.30
2018-07-09T04:43:21.656Z,17.32
2018-07-09T04:44:21.502Z,17.39
2018-07-09T04:45:21.523Z,17.36
2018-07-09T04:46:21.558Z,17.36
2018-07-09T04:47:21.582Z,17.35
2018-07-09T04:48:21.603Z,17.24
2018-07-09T04:49:21.630Z,17.20
2018-07-09T04:50:21.655Z,17.27
2018-07-09T04:51:21.679Z,17.21
2018-07-09T04:52:21.703Z,17.27
2018-07-09T04:53:21.739Z,17.38
2018-07-09T04:54:22.075Z,17.40
2018-07-09T04:55:21.774Z,17.45
2018-07-09T04:56:21.797Z,17.51
2018-07-09T04:57:21.823Z,17.63
2018-07-09T04:58:21.853Z,17.62
2018-07-09T04:59:21.871Z,17.76
2018-07-09T05:00:21.905Z,17.86
2018-07-09T05:01:21.925Z,17.74
2018-07-09T05:02:21.947Z,17.65
2018-07-09T05:03:21.975Z,17.62
2018-07-09T05:04:22.054Z,17.63
2018-07-09T05:05:22.024Z,17.65
2018-07-09T05:06:22.049Z,17.71
2018-07-09T05:07:22.077Z,17.74
2018-07-09T05:08:22.105Z,17.83
2018-07-09T05:09:22.119Z,17.83
2018-07-09T05:10:22.152Z,17.84
2018-07-09T05:11:22.174Z,17.79
2018-07-09T05:12:22.201Z,17.87
2018-07-09T05:13:22.223Z,17.98
2018-07-09T05:14:22.248Z,18.02
2018-07-09T05:15:22.281Z,17.99
2018-07-09T05:16:22.301Z,18.01
2018-07-09T05:17:22.322Z,17.98
2018-07-09T05:18:22.356Z,18.07
2018-07-09T05:19:22.372Z,18.07
2018-07-09T05:20:22.401Z,18.16
2018-07-09T05:21:22.423Z,18.09
2018-07-09T05:22:22.451Z,18.05
2018-07-09T05:23:22.479Z,18.10
2018-07-09T05:24:22.502Z,18.11
2018-07-09T05:25:22.528Z,18.14
2018-07-09T05:26:22.551Z,18.20
2018-07-09T05:27:22.580Z,18.04
2018-07-09T05:28:22.625Z,18.02
2018-07-09T05:29:22.627Z,17.96
2018-07-09T05:30:22.651Z,18.07
2018-07-09T05:31:22.677Z,17.99
2018-07-09T05:32:22.705Z,18.07
2018-07-09T05:33:22.730Z,18.26
2018-07-09T05:34:22.756Z,18.23
2018-07-09T05:35:22.775Z,18.19
2018-07-09T05:36:22.804Z,18.25
2018-07-09T05:37:22.831Z,18.21
2018-07-09T05:38:22.861Z,18.23
2018-07-09T05:39:22.882Z,18.28
2018-07-09T05:40:22.910Z,18.29
2018-07-09T05:41:22.932Z,18.35
2018-07-09T05:42:22.955Z,18.38
2018-07-09T05:43:22.979Z,18.34
2018-07-09T05:44:23.009Z,18.20
2018-07-09T05:45:23.033Z,18.17
2018-07-09T05:46:23.055Z,18.16
2018-07-09T05:47:23.084Z,18.13
2018-07-09T05:48:23.111Z,18.16
2018-07-09T05:49:23.127Z,18.21
2018-07-09T05:50:23.159Z,18.28
2018-07-09T05:51:23.181Z,18.23
2018-07-09T05:52:23.213Z,18.16
2018-07-09T05:53:23.238Z,18.20
2018-07-09T05:54:23.259Z,18.20
2018-07-09T05:55:23.281Z,18.25
2018-07-09T05:56:23.308Z,18.23
2018-07-09T05:57:23.331Z,18.20
2018-07-09T05:58:23.363Z,18.21
2018-07-09T05:59:23.385Z,18.23
2018-07-09T06:00:23.411Z,18.29
2018-07-09T06:01:23.433Z,18.36
2018-07-09T06:02:23.462Z,18.35
2018-07-09T06:03:23.488Z,18.41
2018-07-09T06:04:23.512Z,18.42
2018-07-09T06:05:23.549Z,18.50
2018-07-09T06:06:23.556Z,18.41
2018-07-09T06:07:23.584Z,18.36
2018-07-09T06:08:23.609Z,18.31
2018-07-09T06:09:23.635Z,18.26
2018-07-09T06:10:23.664Z,18.38
2018-07-09T06:11:23.711Z,18.28
2018-07-09T06:12:23.716Z,18.35
2018-07-09T06:13:23.746Z,18.35
2018-07-09T06:14:23.768Z,18.42
2018-07-09T06:15:23.787Z,18.38
2018-07-09T06:16:23.815Z,18.44
2018-07-09T06:17:23.842Z,18.51
2018-07-09T06:18:23.863Z,18.42
2018-07-09T06:19:23.901Z,18.38
2018-07-09T06:20:23.914Z,18.42
2018-07-09T06:21:23.940Z,18.54
2018-07-09T06:22:23.968Z,18.46
2018-07-09T06:23:23.992Z,18.54
2018-07-09T06:24:24.026Z,18.56
2018-07-09T06:25:24.099Z,18.66
2018-07-09T06:26:24.073Z,18.65
2018-07-09T06:27:24.095Z,18.68
2018-07-09T06:28:24.118Z,18.68
2018-07-09T06:29:24.144Z,18.60
2018-07-09T06:30:24.169Z,18.65
2018-07-09T06:31:24.215Z,18.64
2018-07-09T06:32:24.216Z,18.74
2018-07-09T06:33:24.251Z,18.79
2018-07-09T06:34:24.270Z,18.86
2018-07-09T06:35:24.299Z,18.84
2018-07-09T06:36:24.328Z,18.89
2018-07-09T06:37:24.348Z,18.86
2018-07-09T06:38:24.374Z,19.05
2018-07-09T06:39:24.407Z,18.91
2018-07-09T06:40:24.423Z,18.90
2018-07-09T06:41:24.452Z,18.89
2018-07-09T06:42:24.481Z,19.05
2018-07-09T06:43:24.502Z,19.07
2018-07-09T06:44:24.531Z,19.17
2018-07-09T06:45:24.554Z,19.24
2018-07-09T06:46:24.585Z,19.32
2018-07-09T06:47:24.608Z,19.39
2018-07-09T06:48:24.635Z,19.43
2018-07-09T06:49:24.658Z,19.38
2018-07-09T06:50:24.683Z,19.43
2018-07-09T06:51:24.709Z,19.49
2018-07-09T06:52:24.738Z,19.60
2018-07-09T06:53:24.757Z,19.60
2018-07-09T06:54:24.786Z,19.46
2018-07-09T06:55:24.811Z,19.43
2018-07-09T06:56:24.838Z,19.23
2018-07-09T06:57:24.872Z,19.06
2018-07-09T06:58:24.890Z,19.20
2018-07-09T06:59:24.917Z,19.17
2018-07-09T07:00:24.943Z,19.27
2018-07-09T07:01:24.975Z,19.35
2018-07-09T07:02:25.130Z,19.38
2018-07-09T07:03:25.023Z,19.38
2018-07-09T07:04:25.049Z,19.42
2018-07-09T07:05:25.079Z,19.25
2018-07-09T07:06:25.101Z,19.20
2018-07-09T07:07:25.120Z,19.24
2018-07-09T07:08:25.151Z,19.24
2018-07-09T07:09:25.176Z,19.40
2018-07-09T07:10:25.203Z,19.45
2018-07-09T07:11:25.231Z,19.64
2018-07-09T07:12:25.257Z,19.64
2018-07-09T07:13:25.278Z,19.67
2018-07-09T07:14:25.330Z,19.65
2018-07-09T07:15:25.334Z,19.64
2018-07-09T07:16:25.359Z,19.76
2018-07-09T07:17:25.389Z,19.72
2018-07-09T07:18:25.413Z,19.67
2018-07-09T07:19:25.436Z,19.71
2018-07-09T07:20:25.468Z,19.86
2018-07-09T07:21:25.505Z,19.83
2018-07-09T07:22:25.516Z,19.82
2018-07-09T07:23:25.546Z,19.68
2018-07-09T07:24:25.575Z,19.53
2018-07-09T07:25:25.595Z,19.45
2018-07-09T07:26:25.676Z,19.45
2018-07-09T07:27:25.649Z,19.42
2018-07-09T07:28:25.678Z,19.35
2018-07-09T07:29:25.701Z,19.27
2018-07-09T07:30:25.730Z,19.17
2018-07-09T07:31:25.754Z,19.20
2018-07-09T07:32:25.784Z,19.25
2018-07-09T07:33:25.809Z,19.21
2018-07-09T07:34:25.830Z,19.23
2018-07-09T07:35:25.858Z,19.27
2018-07-09T07:36:25.892Z,19.32
2018-07-09T07:37:25.907Z,19.25
2018-07-09T07:38:25.938Z,19.24
2018-07-09T07:39:26.045Z,19.34
2018-07-09T07:40:25.993Z,19.27
2018-07-09T07:41:26.017Z,19.24
2018-07-09T07:42:26.041Z,19.23
2018-07-09T07:43:26.073Z,19.27
2018-07-09T07:44:26.092Z,19.31
2018-07-09T07:45:26.114Z,19.57
2018-07-09T07:46:26.150Z,19.75
2018-07-09T07:47:26.167Z,19.76
2018-07-09T07:48:26.202Z,19.94
2018-07-09T07:49:26.227Z,19.87
2018-07-09T07:50:26.368Z,19.62
2018-07-09T07:51:26.273Z,19.55
2018-07-09T07:52:26.300Z,19.57
2018-07-09T07:53:26.324Z,19.58
2018-07-09T07:54:26.352Z,19.46
2018-07-09T07:55:26.414Z,19.40
2018-07-09T07:56:26.406Z,19.35
2018-07-09T07:57:26.428Z,19.47
2018-07-09T07:58:26.465Z,19.53
2018-07-09T07:59:26.478Z,19.70
2018-07-09T08:00:26.512Z,19.78
2018-07-09T08:01:26.540Z,19.87
2018-07-09T08:02:26.560Z,20.01
2018-07-09T08:03:26.587Z,20.08
2018-07-09T08:04:26.611Z,19.97
2018-07-09T08:05:26.635Z,20.05
2018-07-09T08:06:26.660Z,20.26
2018-07-09T08:07:26.695Z,20.38
2018-07-09T08:08:26.714Z,20.51
2018-07-09T08:09:26.838Z,20.54
2018-07-09T08:10:26.776Z,20.58
2018-07-09T08:11:47.727Z,20.71
2018-07-09T08:13:13.476Z,20.71
2018-07-09T08:13:29.005Z,20.82
2018-07-09T08:14:26.876Z,20.82
2018-07-09T08:15:26.946Z,20.82
2018-07-09T08:16:26.927Z,20.68
2018-07-09T08:17:26.957Z,20.50
2018-07-09T08:18:26.977Z,20.34
2018-07-09T08:19:27.006Z,20.35
2018-07-09T08:20:27.036Z,20.37
2018-07-09T08:21:27.063Z,20.58
2018-07-09T08:22:27.088Z,20.72
2018-07-09T08:23:27.115Z,20.64
2018-07-09T08:24:27.142Z,20.71
2018-07-09T08:25:27.256Z,20.69
2018-07-09T08:26:27.191Z,20.73
2018-07-09T08:27:27.239Z,21.11
2018-07-09T08:28:27.244Z,21.18
2018-07-09T08:29:27.273Z,21.16
2018-07-09T08:30:27.298Z,21.24
2018-07-09T08:31:27.400Z,21.27
2018-07-09T08:32:27.355Z,21.18
2018-07-09T08:33:27.381Z,21.16
2018-07-09T08:34:27.411Z,21.22
2018-07-09T08:35:27.433Z,21.28
2018-07-09T08:36:27.462Z,21.21
2018-07-09T08:37:27.489Z,21.27
2018-07-09T08:38:27.519Z,21.22
2018-07-09T08:39:27.537Z,21.19
2018-07-09T08:40:27.573Z,21.21
2018-07-09T08:41:27.601Z,21.31
2018-07-09T08:42:27.626Z,21.49
2018-07-09T08:43:27.647Z,21.79
2018-07-09T08:44:27.674Z,22.05
2018-07-09T08:45:27.709Z,22.05
2018-07-09T08:46:27.734Z,22.05
2018-07-09T08:47:27.787Z,22.02
2018-07-09T08:48:27.788Z,22.17
2018-07-09T08:49:27.817Z,22.12
2018-07-09T08:50:27.839Z,22.35
2018-07-09T08:51:27.869Z,22.31
2018-07-09T08:52:27.899Z,21.94
2018-07-09T08:53:27.921Z,21.83
2018-07-09T08:54:27.951Z,21.51
2018-07-09T08:55:27.980Z,21.48
2018-07-09T08:56:28.007Z,21.27
2018-07-09T08:57:28.032Z,21.34
2018-07-09T08:58:28.057Z,21.40
2018-07-09T08:59:28.090Z,21.49
2018-07-09T09:00:28.119Z,21.27
2018-07-09T09:01:28.164Z,21.31
2018-07-09T09:02:28.177Z,21.22
2018-07-09T09:03:28.197Z,21.12
2018-07-09T09:04:28.224Z,21.16
2018-07-09T09:05:28.246Z,21.28
2018-07-09T09:06:28.284Z,21.51
2018-07-09T09:07:28.303Z,21.59
2018-07-09T09:08:28.331Z,21.89
2018-07-09T09:09:28.416Z,22.02
2018-07-09T09:10:28.433Z,22.11
2018-07-09T09:11:28.415Z,22.08
2018-07-09T09:12:28.447Z,21.93
2018-07-09T09:13:28.467Z,21.81
2018-07-09T09:14:28.504Z,21.67
2018-07-09T09:15:28.527Z,21.74
2018-07-09T09:16:28.563Z,21.61
2018-07-09T09:17:28.576Z,21.26
2018-07-09T09:18:28.607Z,21.31
2018-07-09T09:19:28.632Z,21.24
2018-07-09T09:20:28.667Z,21.09
2018-07-09T09:21:28.719Z,20.91
2018-07-09T09:22:28.721Z,20.97
2018-07-09T09:23:28.744Z,20.87
2018-07-09T09:24:28.771Z,20.97
2018-07-09T09:25:28.802Z,20.94
2018-07-09T09:26:28.828Z,21.00
2018-07-09T09:27:28.854Z,21.13
2018-07-09T09:28:28.882Z,21.09
2018-07-09T09:29:28.913Z,21.16
2018-07-09T09:30:28.934Z,21.28
2018-07-09T09:31:28.966Z,21.49
2018-07-09T09:32:28.985Z,21.83
2018-07-09T09:33:29.016Z,21.71
2018-07-09T09:34:29.039Z,21.89
2018-07-09T09:35:29.076Z,21.86
2018-07-09T09:36:29.095Z,21.90
2018-07-09T09:37:29.129Z,21.81
2018-07-09T09:38:29.158Z,21.64
2018-07-09T09:39:29.188Z,21.46
2018-07-09T09:40:29.207Z,21.16
2018-07-09T09:41:29.232Z,21.24
2018-07-09T09:42:29.262Z,21.22
2018-07-09T09:43:29.287Z,21.06
2018-07-09T09:44:29.320Z,20.90
2018-07-09T09:45:29.351Z,20.82
2018-07-09T09:46:29.424Z,20.88
2018-07-09T09:47:29.401Z,20.93
2018-07-09T09:48:29.426Z,21.09
2018-07-09T09:49:29.522Z,21.21
2018-07-09T09:50:29.481Z,21.66
2018-07-09T09:51:29.508Z,21.81
2018-07-09T09:52:29.535Z,22.06
2018-07-09T09:53:29.561Z,22.05
2018-07-09T09:54:29.597Z,21.83
2018-07-09T09:55:29.617Z,21.82
2018-07-09T09:56:29.645Z,21.48
2018-07-09T09:57:29.675Z,21.63
2018-07-09T09:58:29.705Z,21.71
2018-07-09T09:59:29.727Z,21.64
2018-07-09T10:00:29.772Z,21.56
2018-07-09T10:01:29.786Z,21.64
2018-07-09T10:02:29.815Z,21.94
2018-07-09T10:03:29.835Z,22.17
2018-07-09T10:04:29.864Z,22.06
2018-07-09T10:05:29.895Z,21.79
2018-07-09T10:06:29.935Z,21.59
2018-07-09T10:07:29.945Z,21.48
2018-07-09T10:08:30.029Z,21.34
2018-07-09T10:09:30.008Z,21.26
2018-07-09T10:10:30.033Z,21.09
2018-07-09T10:11:30.059Z,21.09
2018-07-09T10:12:30.090Z,21.16
2018-07-09T10:13:30.112Z,21.11
2018-07-09T10:14:30.145Z,21.08
2018-07-09T10:15:30.166Z,21.18
2018-07-09T10:16:30.197Z,21.24
2018-07-09T10:17:30.230Z,21.38
2018-07-09T10:18:30.247Z,21.51
2018-07-09T10:19:30.280Z,21.37
2018-07-09T10:20:30.312Z,21.49
2018-07-09T10:21:30.328Z,21.45
2018-07-09T10:22:30.363Z,21.43
2018-07-09T10:23:30.400Z,21.42
2018-07-09T10:24:30.420Z,21.33
2018-07-09T10:25:30.443Z,21.36
2018-07-09T10:26:30.470Z,21.30
2018-07-09T10:27:30.499Z,21.56
2018-07-09T10:28:30.525Z,21.74
2018-07-09T10:29:30.554Z,21.94
2018-07-09T10:30:30.635Z,22.05
2018-07-09T10:31:30.621Z,22.01
2018-07-09T10:32:30.637Z,21.74
2018-07-09T10:33:30.667Z,21.61
2018-07-09T10:34:30.690Z,21.51
2018-07-09T10:35:30.722Z,21.56
2018-07-09T10:36:30.749Z,21.63
2018-07-09T10:37:30.775Z,21.49
2018-07-09T10:38:30.799Z,21.21
2018-07-09T10:39:30.886Z,21.12
2018-07-09T10:40:30.862Z,21.13
2018-07-09T10:41:30.887Z,21.18
2018-07-09T10:42:30.915Z,21.49
2018-07-09T10:43:30.947Z,21.63
2018-07-09T10:44:30.973Z,22.04
2018-07-09T10:45:30.998Z,21.93
2018-07-09T10:46:31.025Z,21.82
2018-07-09T10:47:31.053Z,22.14
2018-07-09T10:48:31.084Z,22.26
2018-07-09T10:49:31.117Z,22.24
2018-07-09T10:50:31.139Z,22.06
2018-07-09T10:51:31.161Z,22.17
2018-07-09T10:52:31.191Z,22.36
2018-07-09T10:53:31.226Z,22.42
2018-07-09T10:54:31.249Z,22.30
2018-07-09T10:55:31.275Z,22.31
2018-07-09T10:56:31.305Z,22.42
2018-07-09T10:57:31.337Z,22.61
2018-07-09T10:58:31.361Z,22.56
2018-07-09T10:59:31.387Z,22.24
2018-07-09T11:00:31.419Z,21.96
2018-07-09T11:01:31.448Z,21.81
2018-07-09T11:02:31.481Z,21.48
2018-07-09T11:03:31.501Z,21.68
2018-07-09T11:04:31.527Z,21.89
2018-07-09T11:05:31.557Z,22.24
2018-07-09T11:06:31.600Z,22.23
2018-07-09T11:07:31.611Z,22.31
2018-07-09T11:08:31.643Z,22.48
2018-07-09T11:09:31.699Z,22.97
2018-07-09T11:10:31.699Z,23.31
2018-07-09T11:11:31.730Z,23.07
2018-07-09T11:12:31.755Z,23.15
2018-07-09T11:13:31.787Z,22.78
2018-07-09T11:14:31.813Z,23.23
2018-07-09T11:15:31.844Z,23.75
2018-07-09T11:16:31.877Z,23.44
2018-07-09T11:17:31.899Z,23.18
2018-07-09T11:18:31.933Z,23.04
2018-07-09T11:19:31.964Z,22.69
2018-07-09T11:20:31.987Z,23.11
2018-07-09T11:21:32.068Z,23.16
2018-07-09T11:22:32.047Z,23.52
2018-07-09T11:23:32.083Z,23.53
2018-07-09T11:24:32.109Z,23.32
2018-07-09T11:25:32.143Z,23.22
2018-07-09T11:26:32.165Z,22.67
2018-07-09T11:27:32.206Z,22.69
2018-07-09T11:28:32.227Z,22.35
2018-07-09T11:29:32.265Z,21.59
2018-07-09T11:30:32.291Z,21.49
2018-07-09T11:31:32.322Z,21.83
2018-07-09T11:32:32.350Z,22.23
2018-07-09T11:33:32.375Z,22.38
2018-07-09T11:34:32.406Z,22.59
2018-07-09T11:35:32.431Z,22.61
2018-07-09T11:36:32.460Z,23.19
2018-07-09T11:37:32.498Z,23.94
2018-07-09T11:38:32.522Z,24.09
2018-07-09T11:39:32.553Z,23.77
2018-07-09T11:40:32.581Z,23.96
2018-07-09T11:41:32.607Z,24.37
2018-07-09T11:42:32.670Z,24.09
2018-07-09T11:43:32.670Z,23.78
2018-07-09T11:44:32.697Z,23.92
2018-07-09T11:45:32.729Z,23.99
2018-07-09T11:46:32.757Z,23.54
2018-07-09T11:47:32.789Z,23.04
2018-07-09T11:48:32.816Z,22.56
2018-07-09T11:49:32.849Z,23.06
2018-07-09T11:50:32.881Z,23.35
2018-07-09T11:51:32.909Z,24.74
2018-07-09T11:52:32.937Z,26.01
2018-07-09T11:53:32.969Z,27.27
2018-07-09T11:54:32.998Z,26.94
2018-07-09T11:55:33.031Z,25.38
2018-07-09T11:56:33.057Z,25.04
2018-07-09T11:57:33.090Z,25.05
2018-07-09T11:58:33.128Z,25.26
2018-07-09T11:59:33.153Z,25.05
2018-07-09T12:00:33.182Z,25.42
2018-07-09T12:01:33.211Z,25.45
2018-07-09T12:02:33.248Z,25.22
2018-07-09T12:03:33.276Z,24.93
2018-07-09T12:04:33.307Z,26.13
2018-07-09T12:05:33.337Z,25.82
2018-07-09T12:06:33.366Z,25.90
2018-07-09T12:07:33.409Z,25.42
2018-07-09T12:08:33.431Z,24.70
2018-07-09T12:09:33.461Z,23.93
2018-07-09T12:10:33.499Z,23.29
2018-07-09T12:11:33.526Z,23.09
2018-07-09T12:12:33.562Z,23.52
2018-07-09T12:13:33.692Z,22.86
2018-07-09T12:14:33.620Z,22.66
2018-07-09T12:15:33.658Z,22.48
2018-07-09T12:16:33.688Z,22.39
2018-07-09T12:17:33.716Z,22.09
2018-07-09T12:18:33.750Z,21.85
2018-07-09T12:19:33.776Z,21.34
2018-07-09T12:20:33.807Z,21.15
2018-07-09T12:21:33.897Z,21.13
2018-07-09T12:22:33.869Z,20.98
2018-07-09T12:23:33.893Z,21.01
2018-07-09T12:24:33.928Z,21.05
2018-07-09T12:25:33.951Z,21.08
2018-07-09T12:26:33.989Z,21.05
2018-07-09T12:27:34.015Z,21.16
2018-07-09T12:28:34.044Z,21.15
2018-07-09T12:29:34.079Z,21.11
2018-07-09T12:30:34.097Z,21.08
2018-07-09T12:31:34.137Z,21.01
2018-07-09T12:32:34.159Z,20.76
2018-07-09T12:33:34.184Z,20.56
2018-07-09T12:34:34.219Z,20.56
2018-07-09T12:35:34.248Z,20.50
2018-07-09T12:36:34.295Z,20.42
2018-07-09T12:37:34.306Z,20.40
2018-07-09T12:38:34.333Z,20.27
2018-07-09T12:39:34.363Z,20.12
2018-07-09T12:40:34.384Z,20.04
2018-07-09T12:41:34.411Z,20.08
2018-07-09T12:42:34.445Z,19.86
2018-07-09T12:43:34.478Z,19.61
2018-07-09T12:44:34.497Z,19.65
2018-07-09T12:45:34.523Z,19.67
2018-07-09T12:46:34.552Z,19.87
2018-07-09T12:47:34.583Z,19.97
2018-07-09T12:48:34.603Z,20.22
2018-07-09T12:49:34.638Z,20.44
2018-07-09T12:50:34.678Z,20.40
2018-07-09T12:51:34.691Z,20.25
2018-07-09T12:52:34.717Z,20.13